createdAt,value
2022-11-12T00:01:06.287Z,12.32
2022-11-12T00:02:27.677Z,9.59
2022-11-12T00:03:49.309Z,9.82
2022-11-12T00:05:11.104Z,9.35
2022-11-12T00:06:32.893Z,12.79
2022-11-12T00:07:54.147Z,9.98
2022-11-12T00:09:15.827Z,10.11
2022-11-12T00:10:37.406Z,13.92
2022-11-12T00:11:58.513Z,10.14
2022-11-12T00:13:20.062Z,11.91
2022-11-12T00:14:41.656Z,10.08
2022-11-12T00:16:03.725Z,11.57
2022-11-12T00:17:25.017Z,13.46
2022-11-12T00:18:46.518Z,14.49
2022-11-12T00:20:09.293Z,13.07
2022-11-12T00:21:30.643Z,10.14
2022-11-12T00:22:51.994Z,12.84
2022-11-12T00:24:12.953Z,11.14
2022-11-12T00:25:34.510Z,10.59
2022-11-12T00:26:55.789Z,12.71
2022-11-12T00:28:17.027Z,12.59
2022-11-12T00:29:38.739Z,12.09
2022-11-12T00:31:03.735Z,11.34
2022-11-12T00:32:25.291Z,12.79
2022-11-12T00:33:46.456Z,13.31
2022-11-12T00:35:13.483Z,15.12
2022-11-12T00:36:31.934Z,11.37
2022-11-12T00:37:56.374Z,12.31
2022-11-12T00:39:17.384Z,10.55
2022-11-12T00:40:39.063Z,10.63
2022-11-12T00:42:00.544Z,13.31
2022-11-12T00:43:21.464Z,12.86
2022-11-12T00:44:42.386Z,10.98
2022-11-12T00:46:04.274Z,9.65
2022-11-12T00:47:25.241Z,11.57
2022-11-12T00:48:46.229Z,10.98
2022-11-12T00:50:08.211Z,13.06
2022-11-12T00:51:29.346Z,12.49
2022-11-12T00:52:51.895Z,10.50
2022-11-12T00:54:13.203Z,8.94
2022-11-12T00:55:34.658Z,12.28
2022-11-12T00:56:55.677Z,11.39
2022-11-12T00:58:17.094Z,13.66
2022-11-12T00:59:38.188Z,12.83
2022-11-12T01:01:12.921Z,12.42
2022-11-12T01:02:40.719Z,11.87
2022-11-12T01:03:58.326Z,12.97
2022-11-12T01:05:19.679Z,12.62
2022-11-12T01:06:41.321Z,12.83
2022-11-12T01:08:02.307Z,13.16
2022-11-12T01:09:23.888Z,13.72
2022-11-12T01:10:45.269Z,10.44
2022-11-12T01:12:06.746Z,11.07
2022-11-12T01:13:28.038Z,10.15
2022-11-12T01:14:50.058Z,12.48
2022-11-12T01:16:13.983Z,11.00
2022-11-12T01:17:35.344Z,10.68
2022-11-12T01:18:57.828Z,11.13
2022-11-12T01:21:41.449Z,11.84
2022-11-12T01:23:02.936Z,9.77
2022-11-12T01:24:24.372Z,11.75
2022-11-12T01:25:45.666Z,10.31
2022-11-12T01:27:07.139Z,10.54
2022-11-12T01:28:28.711Z,10.92
2022-11-12T01:29:50.606Z,11.79
2022-11-12T01:31:19.643Z,12.03
2022-11-12T01:32:41.424Z,13.12
2022-11-12T01:35:15.242Z,9.31
2022-11-12T01:36:37.558Z,12.21
2022-11-12T01:37:58.955Z,10.97
2022-11-12T01:39:20.502Z,10.88
2022-11-12T01:40:42.173Z,12.99
2022-11-12T01:42:03.700Z,12.68
2022-11-12T01:43:25.119Z,10.23
2022-11-12T01:44:46.721Z,13.14
2022-11-12T01:47:31.285Z,9.48
2022-11-12T01:50:18.783Z,11.99
2022-11-12T01:51:42.172Z,12.16
2022-11-12T01:53:05.594Z,12.11
2022-11-12T01:54:26.869Z,11.07
2022-11-12T01:55:48.535Z,10.92
2022-11-12T01:57:10.084Z,11.66
2022-11-12T01:58:31.556Z,10.91
2022-11-12T01:59:54.297Z,11.17
2022-11-12T02:01:15.650Z,11.01
2022-11-12T02:02:37.076Z,11.59
2022-11-12T02:03:58.377Z,11.29
2022-11-12T02:05:19.836Z,14.44
2022-11-12T02:06:41.232Z,11.11
2022-11-12T02:08:02.834Z,11.29
2022-11-12T02:09:24.603Z,8.03
2022-11-12T02:10:45.822Z,12.52
2022-11-12T02:12:07.086Z,9.56
2022-11-12T02:13:28.397Z,12.90
2022-11-12T02:14:49.860Z,10.64
2022-11-12T02:16:11.862Z,10.58
2022-11-12T02:17:33.024Z,13.36
2022-11-12T02:18:54.055Z,11.06
2022-11-12T02:20:15.652Z,13.14
2022-11-12T02:21:37.100Z,13.56
2022-11-12T02:22:58.160Z,13.96
2022-11-12T02:24:23.168Z,13.88
2022-11-12T02:25:44.304Z,15.74
2022-11-12T02:27:05.565Z,12.87
2022-11-12T02:28:27.867Z,11.68
2022-11-12T02:29:49.461Z,11.75
2022-11-12T02:31:10.510Z,13.56
2022-11-12T02:32:31.561Z,13.18
2022-11-12T02:33:52.594Z,12.81
2022-11-12T02:35:14.079Z,11.74
2022-11-12T02:36:35.237Z,11.55
2022-11-12T02:37:56.469Z,11.76
2022-11-12T02:39:17.995Z,12.24
2022-11-12T02:40:39.073Z,19.92
2022-11-12T02:42:00.292Z,15.91
2022-11-12T02:43:21.582Z,16.69
2022-11-12T02:44:43.132Z,12.66
2022-11-12T02:46:04.682Z,11.63
2022-11-12T02:47:26.230Z,11.87
2022-11-12T02:48:47.222Z,11.94
2022-11-12T02:50:09.116Z,12.65
2022-11-12T02:51:30.249Z,13.47
2022-11-12T02:52:51.559Z,10.83
2022-11-12T02:54:12.808Z,13.17
2022-11-12T02:55:35.131Z,13.25
2022-11-12T02:56:56.858Z,11.33
2022-11-12T02:58:18.001Z,15.36
2022-11-12T02:59:39.017Z,13.33
2022-11-12T03:01:00.084Z,12.52
2022-11-12T03:02:21.366Z,10.18
2022-11-12T03:03:42.947Z,13.87
2022-11-12T03:05:04.971Z,14.04
2022-11-12T03:06:26.335Z,10.91
2022-11-12T03:07:47.748Z,11.89
2022-11-12T03:09:10.976Z,11.00
2022-11-12T03:10:32.824Z,11.84
2022-11-12T03:11:54.306Z,13.46
2022-11-12T03:13:15.693Z,15.42
2022-11-12T03:14:37.236Z,14.19
2022-11-12T03:15:59.850Z,16.10
2022-11-12T03:17:21.008Z,14.74
2022-11-12T03:18:42.363Z,11.79
2022-11-12T03:20:05.077Z,15.93
2022-11-12T03:21:26.447Z,11.83
2022-11-12T03:22:58.409Z,12.09
2022-11-12T03:24:19.678Z,11.56
2022-11-12T03:25:41.261Z,9.84
2022-11-12T03:27:02.570Z,12.82
2022-11-12T03:28:24.295Z,12.92
2022-11-12T03:29:46.204Z,10.91
2022-11-12T03:31:07.700Z,10.88
2022-11-12T03:32:28.912Z,14.62
2022-11-12T03:33:50.469Z,13.68
2022-11-12T03:35:12.312Z,10.73
2022-11-12T03:36:33.920Z,10.62
2022-11-12T03:37:55.265Z,11.87
2022-11-12T03:39:16.900Z,15.05
2022-11-12T03:40:38.426Z,14.76
2022-11-12T03:42:00.032Z,12.88
2022-11-12T03:43:21.873Z,14.71
2022-11-12T03:44:43.573Z,14.63
2022-11-12T03:46:04.917Z,12.68
2022-11-12T03:47:26.252Z,21.87
2022-11-12T03:48:47.932Z,27.23
2022-11-12T03:50:11.018Z,19.14
2022-11-12T03:51:32.482Z,16.52
2022-11-12T03:52:56.033Z,20.48
2022-11-12T03:54:17.561Z,14.58
2022-11-12T03:55:38.992Z,21.13
2022-11-12T03:57:01.538Z,19.14
2022-11-12T03:58:22.560Z,16.76
2022-11-12T03:59:44.086Z,15.34
2022-11-12T04:01:05.983Z,22.45
2022-11-12T04:02:27.373Z,24.30
2022-11-12T04:03:48.752Z,29.22
2022-11-12T04:05:09.937Z,31.13
2022-11-12T04:06:31.654Z,53.57
2022-11-12T04:08:01.623Z,54.73
2022-11-12T04:09:22.777Z,43.78
2022-11-12T04:10:44.252Z,50.21
2022-11-12T04:12:05.521Z,66.34
2022-11-12T04:13:26.841Z,66.26
2022-11-12T04:14:48.133Z,70.41
2022-11-12T04:16:12.657Z,39.24
2022-11-12T04:18:55.865Z,36.41
2022-11-12T04:21:40.563Z,24.72
2022-11-12T04:24:31.672Z,16.05
2022-11-12T04:25:52.885Z,20.47
2022-11-12T04:28:35.561Z,19.73
2022-11-12T04:29:57.150Z,19.02
2022-11-12T04:31:18.560Z,21.28
2022-11-12T04:33:56.202Z,11.94
2022-11-12T04:35:17.755Z,16.22
2022-11-12T04:36:39.232Z,16.53
2022-11-12T04:38:00.710Z,17.06
2022-11-12T04:39:21.876Z,14.09
2022-11-12T04:40:43.436Z,15.03
2022-11-12T04:42:04.952Z,16.77
2022-11-12T04:43:26.250Z,16.05
2022-11-12T04:44:47.762Z,13.47
2022-11-12T04:46:10.156Z,19.59
2022-11-12T04:47:39.224Z,27.07
2022-11-12T04:49:00.819Z,17.24
2022-11-12T04:50:22.532Z,51.09
2022-11-12T04:51:43.776Z,25.96
2022-11-12T04:53:05.380Z,20.73
2022-11-12T04:54:26.588Z,23.08
2022-11-12T04:55:51.602Z,18.57
2022-11-12T04:57:13.084Z,21.06
2022-11-12T04:58:34.638Z,17.35
2022-11-12T04:59:56.044Z,19.67
2022-11-12T05:01:17.180Z,16.00
2022-11-12T05:02:38.575Z,20.07
2022-11-12T05:03:59.753Z,17.46
2022-11-12T05:05:21.489Z,16.24
2022-11-12T05:06:43.275Z,17.05
2022-11-12T05:08:04.631Z,14.13
2022-11-12T05:09:27.562Z,18.05
2022-11-12T05:10:49.147Z,16.62
2022-11-12T05:12:11.580Z,15.07
2022-11-12T05:13:32.945Z,15.23
2022-11-12T05:14:54.820Z,18.76
2022-11-12T05:16:17.242Z,16.34
2022-11-12T05:17:42.227Z,24.17
2022-11-12T05:19:04.076Z,25.09
2022-11-12T05:20:25.472Z,21.63
2022-11-12T05:21:47.135Z,21.51
2022-11-12T05:23:08.622Z,33.11
2022-11-12T05:24:41.643Z,16.97
2022-11-12T05:25:53.667Z,21.68
2022-11-12T05:28:27.900Z,33.53
2022-11-12T05:29:49.715Z,24.86
2022-11-12T05:31:11.132Z,15.58
2022-11-12T05:32:32.657Z,17.51
2022-11-12T05:33:54.155Z,19.05
2022-11-12T05:35:15.659Z,15.58
2022-11-12T05:36:37.279Z,16.30
2022-11-12T05:37:58.700Z,16.84
2022-11-12T05:39:20.096Z,13.62
2022-11-12T05:40:44.121Z,17.01
2022-11-12T05:42:13.052Z,21.52
2022-11-12T05:43:28.561Z,16.12
2022-11-12T05:44:50.186Z,18.72
2022-11-12T05:46:11.757Z,25.17
2022-11-12T05:47:33.334Z,19.49
2022-11-12T05:48:54.857Z,21.51
2022-11-12T05:50:16.819Z,20.20
2022-11-12T05:51:37.842Z,35.97
2022-11-12T05:52:59.416Z,59.28
2022-11-12T05:54:21.512Z,56.93
2022-11-12T05:55:43.440Z,62.95
2022-11-12T05:57:04.604Z,26.03
2022-11-12T05:58:27.637Z,24.10
2022-11-12T05:59:49.605Z,27.37
2022-11-12T06:01:10.593Z,35.04
2022-11-12T06:02:31.991Z,42.85
2022-11-12T06:05:14.791Z,31.46
2022-11-12T06:06:36.344Z,47.22
2022-11-12T06:07:57.466Z,47.90
2022-11-12T06:09:18.558Z,78.79
2022-11-12T06:10:40.170Z,94.50
2022-11-12T06:12:04.246Z,103.24
2022-11-12T06:13:25.994Z,95.43
2022-11-12T06:14:47.636Z,68.06
2022-11-12T06:16:09.996Z,81.12
2022-11-12T06:17:31.211Z,26.41
2022-11-12T06:18:52.721Z,57.59
2022-11-12T06:20:14.974Z,51.98
2022-11-12T06:21:36.476Z,104.72
2022-11-12T06:22:57.937Z,27.93
2022-11-12T06:24:19.482Z,29.60
2022-11-12T06:25:40.859Z,20.87
2022-11-12T06:27:02.838Z,19.51
2022-11-12T06:28:24.284Z,17.52
2022-11-12T06:29:46.171Z,17.67
2022-11-12T06:31:07.341Z,14.05
2022-11-12T06:32:28.871Z,14.54
2022-11-12T06:33:50.251Z,24.46
2022-11-12T06:35:11.283Z,23.16
2022-11-12T06:36:33.026Z,27.28
2022-11-12T06:37:54.313Z,19.17
2022-11-12T06:39:15.703Z,21.37
2022-11-12T06:40:37.167Z,19.59
2022-11-12T06:41:58.671Z,13.76
2022-11-12T06:43:20.672Z,18.50
2022-11-12T06:44:41.986Z,16.83
2022-11-12T06:46:05.505Z,19.59
2022-11-12T06:47:26.845Z,14.84
2022-11-12T06:48:48.185Z,13.18
2022-11-12T06:50:09.797Z,14.23
2022-11-12T06:51:33.555Z,15.48
2022-11-12T06:52:58.948Z,14.36
2022-11-12T06:54:20.049Z,14.23
2022-11-12T06:55:41.413Z,14.03
2022-11-12T06:57:03.146Z,12.47
2022-11-12T06:58:25.864Z,14.36
2022-11-12T07:02:42.161Z,14.01
2022-11-12T07:04:05.750Z,13.79
2022-11-12T07:05:27.557Z,14.28
2022-11-12T07:06:49.183Z,14.54
2022-11-12T07:08:11.886Z,16.03
2022-11-12T07:09:33.158Z,11.90
2022-11-12T07:10:55.742Z,14.82
2022-11-12T07:12:20.045Z,17.96
2022-11-12T07:15:04.836Z,14.91
2022-11-12T07:16:26.245Z,13.86
2022-11-12T07:17:49.572Z,13.32
2022-11-12T07:19:12.332Z,14.88
2022-11-12T07:20:35.266Z,13.43
2022-11-12T07:21:58.183Z,15.03
2022-11-12T07:23:19.651Z,15.90
2022-11-12T07:24:41.662Z,13.17
2022-11-12T07:27:20.938Z,13.11
2022-11-12T07:28:43.307Z,17.73
2022-11-12T07:30:05.801Z,15.11
2022-11-12T07:31:27.084Z,14.42
2022-11-12T07:32:52.029Z,17.46
2022-11-12T07:34:12.930Z,14.16
2022-11-12T07:35:35.806Z,15.24
2022-11-12T07:36:57.250Z,12.47
2022-11-12T07:38:27.401Z,14.71
2022-11-12T07:41:38.406Z,16.98
2022-11-12T07:42:59.844Z,12.51
2022-11-12T07:44:23.904Z,14.79
2022-11-12T07:45:49.430Z,19.22
2022-11-12T07:47:11.216Z,12.27
2022-11-12T07:48:34.735Z,14.68
2022-11-12T07:49:58.729Z,16.18
2022-11-12T07:51:24.609Z,15.08
2022-11-12T07:54:32.793Z,13.03
2022-11-12T07:57:09.855Z,15.33
2022-11-12T07:58:32.255Z,17.68
2022-11-12T07:59:53.866Z,15.03
2022-11-12T08:01:33.851Z,18.13
2022-11-12T08:02:58.823Z,14.88
2022-11-12T08:04:20.456Z,18.46
2022-11-12T08:05:41.885Z,13.75
2022-11-12T08:07:06.243Z,15.09
2022-11-12T08:08:28.123Z,16.74
2022-11-12T08:09:49.598Z,15.08
2022-11-12T08:11:10.821Z,16.04
2022-11-12T08:12:32.166Z,17.80
2022-11-12T08:13:53.800Z,18.21
2022-11-12T08:37:15.692Z,36.08
2022-11-12T08:38:37.446Z,25.32
2022-11-12T08:39:58.821Z,18.52
2022-11-12T08:41:20.322Z,18.66
2022-11-12T08:42:41.662Z,18.69
2022-11-12T08:44:08.358Z,17.79
2022-11-12T08:45:27.258Z,19.64
2022-11-12T08:46:49.940Z,19.96
2022-11-12T08:49:33.363Z,14.78
2022-11-12T08:50:55.297Z,16.25
2022-11-12T08:52:16.431Z,15.27
2022-11-12T08:53:37.946Z,16.41
2022-11-12T08:55:00.476Z,16.07
2022-11-12T08:56:21.699Z,17.84
2022-11-12T08:57:43.317Z,17.19
2022-11-12T08:59:07.360Z,16.83
2022-11-12T09:00:28.746Z,16.22
2022-11-12T09:01:50.516Z,18.39
2022-11-12T09:03:14.133Z,16.56
2022-11-12T09:04:35.474Z,17.89
2022-11-12T09:05:57.459Z,17.68
2022-11-12T09:07:48.021Z,16.63
2022-11-12T09:08:44.631Z,14.34
2022-11-12T09:10:06.663Z,14.46
2022-11-12T09:11:28.260Z,14.88
2022-11-12T09:14:03.636Z,19.13
2022-11-12T09:15:42.985Z,18.26
2022-11-12T09:16:51.113Z,14.86
2022-11-12T09:18:15.293Z,13.37
2022-11-12T09:19:41.621Z,15.42
2022-11-12T09:21:09.262Z,14.17
2022-11-12T09:22:30.336Z,16.09
2022-11-12T09:23:51.876Z,13.69
2022-11-12T09:25:13.425Z,17.18
2022-11-12T09:26:35.327Z,12.73
2022-11-12T09:27:57.514Z,16.51
2022-11-12T09:29:20.676Z,13.31
2022-11-12T09:30:46.731Z,14.86
2022-11-12T09:32:07.889Z,16.57
2022-11-12T09:33:30.725Z,15.72
2022-11-12T09:34:52.061Z,12.29
2022-11-12T09:36:14.680Z,14.61
2022-11-12T09:37:38.806Z,16.58
2022-11-12T09:39:00.780Z,14.81
2022-11-12T09:40:24.292Z,14.26
2022-11-12T09:41:45.855Z,13.89
2022-11-12T09:43:13.029Z,14.61
2022-11-12T09:44:36.928Z,13.37
2022-11-12T09:46:26.770Z,13.54
2022-11-12T09:47:40.054Z,13.39
2022-11-12T09:50:31.615Z,15.22
2022-11-12T09:53:16.335Z,15.90
2022-11-12T09:54:37.765Z,13.13
2022-11-12T09:55:59.173Z,14.62
2022-11-12T09:57:20.546Z,13.59
2022-11-12T09:58:42.380Z,17.48
2022-11-12T10:00:07.666Z,14.68
2022-11-12T10:01:38.767Z,14.91
2022-11-12T10:03:07.302Z,15.65
2022-11-12T10:04:54.698Z,13.10
2022-11-12T10:06:22.065Z,14.31
2022-11-12T10:07:52.376Z,14.39
2022-11-12T10:09:18.325Z,14.83
2022-11-12T10:10:43.754Z,14.82
2022-11-12T10:12:17.933Z,14.41
2022-11-12T10:15:26.089Z,13.83
2022-11-12T10:16:53.499Z,13.56
2022-11-12T10:18:53.243Z,14.69
2022-11-12T10:20:24.263Z,15.58
2022-11-12T10:22:19.805Z,13.94
2022-11-12T10:24:59.293Z,15.01
2022-11-12T10:26:22.579Z,13.42
2022-11-12T10:27:44.334Z,19.04
2022-11-12T10:29:12.213Z,18.66
2022-11-12T10:30:33.501Z,14.01
2022-11-12T10:31:55.025Z,14.33
2022-11-12T10:33:16.309Z,14.15
2022-11-12T10:34:38.275Z,14.07
2022-11-12T10:36:19.588Z,11.67
2022-11-12T10:37:50.186Z,11.27
2022-11-12T10:39:32.157Z,12.01
2022-11-12T10:40:53.557Z,13.12
2022-11-12T10:42:16.385Z,14.82
2022-11-12T10:43:39.006Z,15.00
2022-11-12T10:45:20.849Z,13.81
2022-11-12T10:46:42.290Z,14.13
2022-11-12T10:48:05.739Z,15.89
2022-11-12T10:49:27.151Z,12.97
2022-11-12T10:50:49.628Z,13.68
2022-11-12T10:52:21.869Z,14.36
2022-11-12T10:53:43.354Z,12.48
2022-11-12T10:55:30.474Z,11.53
2022-11-12T10:56:55.448Z,13.26
2022-11-12T10:58:17.080Z,14.41
2022-11-12T10:59:38.549Z,14.03
2022-11-12T11:01:01.808Z,13.96
2022-11-12T11:02:23.173Z,14.71
2022-11-12T11:03:46.841Z,11.98
2022-11-12T11:05:31.432Z,12.67
2022-11-12T11:07:03.375Z,12.41
2022-11-12T11:08:35.895Z,11.35
2022-11-12T11:09:58.652Z,13.28
2022-11-12T11:11:28.308Z,14.55
2022-11-12T11:12:51.754Z,15.56
2022-11-12T11:14:31.725Z,13.51
2022-11-12T11:16:00.393Z,11.47
2022-11-12T11:17:22.047Z,11.83
2022-11-12T11:18:46.147Z,11.30
2022-11-12T11:21:54.543Z,13.38
2022-11-12T11:23:23.501Z,12.06
2022-11-12T11:26:46.880Z,12.67
2022-11-12T11:28:14.889Z,12.94
2022-11-12T11:29:53.066Z,12.78
2022-11-12T11:31:34.640Z,15.60
2022-11-12T11:34:57.299Z,15.97
2022-11-12T11:36:37.083Z,13.55
2022-11-12T11:39:57.884Z,12.61
2022-11-12T11:41:47.404Z,11.61
2022-11-12T11:43:48.007Z,11.83
2022-11-12T11:48:06.138Z,12.14
2022-11-12T11:49:46.231Z,10.87
2022-11-12T11:51:26.632Z,12.88
2022-11-12T11:52:51.776Z,11.03
2022-11-12T11:54:31.788Z,11.35
2022-11-12T11:55:56.015Z,12.58
2022-11-12T12:00:19.856Z,11.01
2022-11-12T12:01:50.722Z,9.77
2022-11-12T12:03:15.965Z,11.06
2022-11-12T12:04:47.500Z,10.19
2022-11-12T12:08:06.169Z,13.11
2022-11-12T12:09:37.160Z,11.37
2022-11-12T12:11:08.634Z,10.80
2022-11-12T12:12:41.995Z,11.25
2022-11-12T12:14:16.145Z,13.57
2022-11-12T12:17:50.030Z,13.31
2022-11-12T12:19:19.280Z,12.78
2022-11-12T12:20:53.631Z,13.62
2022-11-12T12:22:17.847Z,12.18
2022-11-12T12:23:54.592Z,13.35
2022-11-12T12:25:27.753Z,14.38
2022-11-12T12:27:01.816Z,13.16
2022-11-12T12:28:38.918Z,12.68
2022-11-12T12:31:17.997Z,12.13
2022-11-12T12:32:51.521Z,12.41
2022-11-12T12:46:07.097Z,15.39
2022-11-12T12:48:41.343Z,16.83
2022-11-12T12:50:07.028Z,10.94
2022-11-12T12:51:29.513Z,15.27
2022-11-12T12:53:04.010Z,12.91
2022-11-12T12:54:38.143Z,18.89
2022-11-12T12:56:01.069Z,14.73
2022-11-12T12:57:39.200Z,14.71
2022-11-12T12:59:01.025Z,17.91
2022-11-12T13:00:37.660Z,13.59
2022-11-12T13:02:00.383Z,11.44
2022-11-12T13:05:03.401Z,13.54
2022-11-12T13:06:26.956Z,16.14
2022-11-12T13:07:48.208Z,9.50
2022-11-12T13:09:16.108Z,11.54
2022-11-12T13:10:44.367Z,15.38
2022-11-12T13:12:08.421Z,12.99
2022-11-12T13:14:49.081Z,11.07
2022-11-12T13:16:15.671Z,13.20
2022-11-12T13:18:56.022Z,9.32
2022-11-12T13:20:32.808Z,13.47
2022-11-12T13:23:49.439Z,13.92
2022-11-12T13:40:32.549Z,13.44
2022-11-12T13:41:56.739Z,13.27
2022-11-12T13:43:24.974Z,14.10
2022-11-12T13:44:50.915Z,17.62
2022-11-12T13:47:37.011Z,15.26
2022-11-12T13:49:01.549Z,13.51
2022-11-12T13:50:22.913Z,13.58
2022-11-12T13:51:45.264Z,11.83
2022-11-12T13:54:33.742Z,9.02
2022-11-12T13:55:55.360Z,11.32
2022-11-12T13:57:23.595Z,10.31
2022-11-12T13:58:45.310Z,13.25
2022-11-12T14:00:09.562Z,10.61
2022-11-12T14:01:30.877Z,12.92
2022-11-12T14:03:00.571Z,11.31
2022-11-12T14:04:22.792Z,11.57
2022-11-12T14:05:46.564Z,9.28
2022-11-12T14:07:20.676Z,9.79
2022-11-12T14:09:05.686Z,11.79
2022-11-12T14:10:58.225Z,11.76
2022-11-12T14:12:44.659Z,10.41
2022-11-12T14:14:35.452Z,11.38
2022-11-12T14:16:17.160Z,11.86
2022-11-12T16:57:25.677Z,11.28
2022-11-12T16:58:46.997Z,13.02
2022-11-12T17:00:16.261Z,12.22
2022-11-12T17:01:39.658Z,11.45
2022-11-12T17:03:01.117Z,14.36
2022-11-12T17:04:25.684Z,11.53
2022-11-12T19:35:52.968Z,17.74
2022-11-12T19:38:38.059Z,18.18
2022-11-12T19:40:00.900Z,20.67
2022-11-12T19:41:22.568Z,16.31
2022-11-12T19:42:46.193Z,17.49
2022-11-12T19:44:07.956Z,17.61
2022-11-12T19:45:29.316Z,19.92
2022-11-12T19:46:50.390Z,19.12
2022-11-12T19:48:11.551Z,21.09
2022-11-12T19:49:33.285Z,19.73
2022-11-12T19:50:54.735Z,17.46
2022-11-12T19:52:16.170Z,14.95
2022-11-12T19:53:41.493Z,18.28
2022-11-12T19:55:03.094Z,17.72
2022-11-12T19:56:25.488Z,16.35
2022-11-12T19:57:46.804Z,17.54
2022-11-12T19:59:09.420Z,18.68
2022-11-12T20:00:30.740Z,17.71
2022-11-12T20:01:51.936Z,15.81
2022-11-12T20:03:13.157Z,17.98
2022-11-12T20:04:34.626Z,18.20
2022-11-12T20:06:00.874Z,16.83
2022-11-12T20:07:22.459Z,15.05
2022-11-12T20:08:45.131Z,18.80
2022-11-12T20:10:08.036Z,16.81
2022-11-12T20:11:29.618Z,17.32
2022-11-12T20:12:51.110Z,16.52
2022-11-12T20:14:12.919Z,15.83
2022-11-12T20:15:36.215Z,18.16
2022-11-12T20:16:57.694Z,21.36
2022-11-12T20:18:18.783Z,18.39
2022-11-12T20:19:39.968Z,18.48
2022-11-12T20:21:01.359Z,16.82
2022-11-12T20:22:27.898Z,17.44
2022-11-12T20:23:46.901Z,17.77
2022-11-12T20:25:09.003Z,16.87
2022-11-12T20:26:30.407Z,15.41
2022-11-12T20:27:51.621Z,16.76
2022-11-12T20:29:13.120Z,17.23
2022-11-12T20:30:34.553Z,15.59
2022-11-12T20:31:56.047Z,15.64
2022-11-12T20:33:17.560Z,18.28
2022-11-12T20:34:39.471Z,19.02
2022-11-12T20:36:19.099Z,18.58
2022-11-12T20:37:40.111Z,17.49
2022-11-12T20:39:02.981Z,19.74
2022-11-12T20:40:25.512Z,18.86
2022-11-12T20:43:08.194Z,16.20
2022-11-12T20:44:29.672Z,19.73
2022-11-12T20:45:51.093Z,15.89
2022-11-12T20:47:12.472Z,17.28
2022-11-12T20:48:37.724Z,16.61
2022-11-12T20:49:58.190Z,16.63
2022-11-12T20:51:25.390Z,16.29
2022-11-12T20:52:45.432Z,17.77
2022-11-12T20:55:29.824Z,15.52
2022-11-12T20:56:51.711Z,15.64
2022-11-12T20:58:13.039Z,13.74
2022-11-12T20:59:35.407Z,16.88
2022-11-12T21:00:56.424Z,16.77
2022-11-12T21:02:17.395Z,15.02
2022-11-12T21:03:39.127Z,15.40
2022-11-12T21:05:00.210Z,15.29
2022-11-12T21:06:23.097Z,12.41
2022-11-12T21:07:44.383Z,14.43
2022-11-12T21:09:05.354Z,16.09
2022-11-12T21:10:26.943Z,13.62
2022-11-12T21:11:48.447Z,14.71
2022-11-12T21:13:09.536Z,15.72
2022-11-12T21:14:31.126Z,14.64
2022-11-12T21:15:52.548Z,12.92
2022-11-12T21:17:13.739Z,15.34
2022-11-12T21:18:35.383Z,13.80
2022-11-12T21:19:57.050Z,12.32
2022-11-12T21:21:18.365Z,11.85
2022-11-12T21:22:39.695Z,13.82
2022-11-12T21:24:04.862Z,12.13
2022-11-12T21:26:44.898Z,13.59
2022-11-12T21:28:06.207Z,13.37
2022-11-12T21:29:27.335Z,11.83
2022-11-12T21:30:48.421Z,11.08
2022-11-12T21:32:10.257Z,11.62
2022-11-12T21:33:31.709Z,10.88
2022-11-12T21:34:53.088Z,12.93
2022-11-12T21:36:16.730Z,10.06
2022-11-12T21:39:00.962Z,12.43
2022-11-12T21:40:22.471Z,13.17
2022-11-12T21:41:43.540Z,12.09
2022-11-12T21:43:05.136Z,12.67
2022-11-12T21:44:28.836Z,14.06
2022-11-12T21:45:50.041Z,11.17
2022-11-12T21:47:11.661Z,13.32
2022-11-12T21:48:34.233Z,11.44
2022-11-12T21:49:55.641Z,12.12
2022-11-12T21:51:18.603Z,12.27
2022-11-12T21:52:39.746Z,12.04
2022-11-12T21:55:14.161Z,14.97
2022-11-12T21:56:36.722Z,13.37
2022-11-12T21:57:57.917Z,14.88
2022-11-12T21:59:19.244Z,14.46
2022-11-12T22:00:42.600Z,14.23
2022-11-12T22:02:04.281Z,12.54
2022-11-12T22:04:38.920Z,12.20
2022-11-12T22:06:00.637Z,12.16
2022-11-12T22:07:21.799Z,11.83
2022-11-12T22:08:43.539Z,13.44
2022-11-12T22:10:06.148Z,11.63
2022-11-12T22:11:27.870Z,11.66
2022-11-12T22:13:12.102Z,11.24
2022-11-12T22:14:12.404Z,10.29
2022-11-12T22:15:34.245Z,12.61
2022-11-12T22:16:55.793Z,11.35
2022-11-12T22:18:17.351Z,12.26
2022-11-12T22:19:41.277Z,11.97
2022-11-12T22:21:04.824Z,14.39
2022-11-12T22:22:26.156Z,12.54
2022-11-12T22:23:47.315Z,13.51
2022-11-12T22:25:08.832Z,13.62
2022-11-12T22:26:30.656Z,13.17
2022-11-12T22:27:52.065Z,10.13
2022-11-12T22:29:13.611Z,11.84
2022-11-12T22:30:35.278Z,11.52
2022-11-12T22:31:56.453Z,10.74
2022-11-12T22:33:17.917Z,10.71
2022-11-12T22:34:39.241Z,11.35
2022-11-12T22:36:04.896Z,9.96
2022-11-12T22:37:26.602Z,11.46
2022-11-12T22:38:49.436Z,15.83
2022-11-12T22:40:13.588Z,11.02
2022-11-12T22:41:35.393Z,11.26
2022-11-12T22:42:56.826Z,12.59
2022-11-12T22:44:18.047Z,11.62
2022-11-12T22:45:39.434Z,11.62
2022-11-12T22:47:01.047Z,10.92
2022-11-12T22:48:22.472Z,12.23
2022-11-12T22:49:43.682Z,14.02
2022-11-12T22:51:07.068Z,12.65
2022-11-12T22:52:28.386Z,12.78
2022-11-12T22:55:04.997Z,12.75
2022-11-12T22:56:28.421Z,8.09
2022-11-12T22:59:10.718Z,11.38
2022-11-12T23:00:32.097Z,11.09
2022-11-12T23:01:53.732Z,13.02
2022-11-12T23:03:15.117Z,11.27
2022-11-12T23:04:36.257Z,11.27
2022-11-12T23:05:58.432Z,12.52
2022-11-12T23:07:19.958Z,9.38
2022-11-12T23:08:41.725Z,11.64
2022-11-12T23:10:04.178Z,11.38
2022-11-12T23:11:25.523Z,12.66
2022-11-12T23:12:46.756Z,11.75
2022-11-12T23:14:08.196Z,12.34
2022-11-12T23:15:29.679Z,12.86
2022-11-12T23:16:50.773Z,12.07
2022-11-12T23:18:12.107Z,11.11
2022-11-12T23:19:33.369Z,10.77
2022-11-12T23:20:54.388Z,10.72
2022-11-12T23:22:15.522Z,11.55
2022-11-12T23:23:37.026Z,11.96
2022-11-12T23:24:58.369Z,13.22
2022-11-12T23:27:34.466Z,12.19
2022-11-12T23:28:56.168Z,11.18
2022-11-12T23:30:17.984Z,10.52
2022-11-12T23:31:39.426Z,11.33
2022-11-12T23:33:01.255Z,12.87
2022-11-12T23:34:22.513Z,11.81
2022-11-12T23:35:44.047Z,12.33
2022-11-12T23:37:05.151Z,11.69
2022-11-12T23:38:26.597Z,12.77
2022-11-12T23:39:48.195Z,13.61
2022-11-12T23:41:10.784Z,12.17
2022-11-12T23:42:32.215Z,13.39
2022-11-12T23:43:54.243Z,12.14
2022-11-12T23:45:15.627Z,14.23
2022-11-12T23:46:37.286Z,13.88
2022-11-12T23:47:58.898Z,13.44
2022-11-12T23:49:20.458Z,13.01
2022-11-12T23:50:42.293Z,14.21
2022-11-12T23:52:03.662Z,13.12
2022-11-12T23:53:25.036Z,11.58
2022-11-12T23:54:46.612Z,14.94
2022-11-12T23:56:18.474Z,13.02
2022-11-12T23:57:39.667Z,13.04
2022-11-12T23:59:01.113Z,13.08
